Time;durP1;ratioP1;P1;durP2;ratioP2;P2;SDS_P1;SDS_P2;PMS_P1;PMS_P2;Temp;Humidity;BMP_temperature;BMP_pressure;BME280_temperature;BME280_humidity;BME280_pressure;Samples;Min_cycle;Max_cycle;Signal;HPM_P1;HPM_P2
2021/12/18 00:01:00;;;;;;;0.40;0.40;;;6.00;99.90;;;;;;5073667;28;20428;-68
2021/12/18 00:03:47;;;;;;;0.40;0.40;;;6.10;99.90;;;;;;5074690;28;20415;-68
2021/12/18 00:06:34;;;;;;;0.40;0.40;;;6.10;99.90;;;;;;5073268;28;20504;-68
2021/12/18 00:09:21;;;;;;;0.50;0.40;;;6.10;99.90;;;;;;5072844;28;20489;-68
2021/12/18 00:12:10;;;;;;;0.40;0.40;;;6.10;99.90;;;;;;5073434;28;20927;-68
2021/12/18 00:14:57;;;;;;;0.67;0.60;;;6.00;99.90;;;;;;5073929;28;20506;-68
2021/12/18 00:17:44;;;;;;;0.40;0.40;;;6.00;99.90;;;;;;5073654;28;20455;-68
2021/12/18 00:20:32;;;;;;;0.40;0.40;;;6.00;99.90;;;;;;5073587;28;20423;-68
2021/12/18 00:23:19;;;;;;;0.40;0.40;;;6.00;99.90;;;;;;5073749;28;20423;-68
2021/12/18 00:26:06;;;;;;;0.40;0.40;;;6.00;99.90;;;;;;5073706;28;20797;-68
2021/12/18 00:28:54;;;;;;;0.40;0.40;;;6.10;99.90;;;;;;5073215;28;20463;-68
2021/12/18 00:31:41;;;;;;;0.40;0.40;;;6.00;99.90;;;;;;5072966;28;20506;-68
2021/12/18 00:34:28;;;;;;;0.40;0.40;;;6.00;99.90;;;;;;5073005;28;20926;-68
2021/12/18 00:37:15;;;;;;;0.40;0.40;;;6.00;99.90;;;;;;5060614;28;20978;-68
2021/12/18 00:40:06;;;;;;;0.40;0.40;;;6.10;99.90;;;;;;5053073;28;20948;-68
2021/12/18 00:42:59;;;;;;;0.40;0.40;;;6.30;99.90;;;;;;5053867;28;20428;-68
2021/12/18 00:45:47;;;;;;;0.40;0.40;;;6.30;99.90;;;;;;5053241;28;20435;-69
2021/12/18 00:48:34;;;;;;;0.90;0.90;;;6.30;99.90;;;;;;5052959;28;20517;-68
2021/12/18 00:51:21;;;;;;;0.40;0.40;;;6.30;99.90;;;;;;5053374;28;20424;-68
2021/12/18 00:54:08;;;;;;;0.40;0.40;;;6.30;99.90;;;;;;5053257;28;20477;-68
2021/12/18 00:56:55;;;;;;;0.40;0.40;;;6.30;99.90;;;;;;5068427;28;20421;-68
2021/12/18 00:59:42;;;;;;;0.40;0.40;;;6.40;99.90;;;;;;5062915;28;20476;-68
2021/12/18 01:02:30;;;;;;;0.40;0.40;;;6.40;99.90;;;;;;5062775;28;20437;-68
2021/12/18 01:05:17;;;;;;;0.40;0.40;;;6.30;99.90;;;;;;5060610;28;20416;-68
2021/12/18 01:08:05;;;;;;;0.40;0.40;;;6.30;99.90;;;;;;5061936;28;20412;-68
2021/12/18 01:11:09;;;;;;;0.40;0.40;;;6.40;99.90;;;;;;5052536;28;20431;-68
2021/12/18 01:14:12;;;;;;;0.40;0.40;;;6.50;99.90;;;;;;5053353;28;20424;-68
2021/12/18 01:22:42;;;;;;;0.40;0.40;;;6.40;99.90;;;;;;5052997;28;20821;-68
2021/12/18 01:23:16;;;;;;;0.40;0.40;;;6.30;99.90;;;;;;5053073;28;20432;-68
2021/12/18 01:26:04;;;;;;;0.40;0.40;;;6.30;99.90;;;;;;5053338;28;20431;-68
2021/12/18 01:28:51;;;;;;;0.40;0.40;;;6.40;99.90;;;;;;5052701;28;20459;-68
2021/12/18 01:31:38;;;;;;;0.40;0.40;;;6.40;99.90;;;;;;5053031;28;20451;-68
2021/12/18 01:34:25;;;;;;;0.40;0.40;;;6.50;99.90;;;;;;5052534;28;20423;-68
2021/12/18 01:37:13;;;;;;;0.40;0.40;;;6.50;99.90;;;;;;5063286;28;20946;-68
2021/12/18 01:40:00;;;;;;;0.40;0.40;;;6.40;99.90;;;;;;5071339;28;20435;-68
2021/12/18 01:43:55;;;;;;;0.40;0.40;;;6.40;99.90;;;;;;5071362;28;20415;-68
2021/12/18 01:46:47;;;;;;;0.40;0.40;;;6.40;99.90;;;;;;5072440;28;20420;-68
2021/12/18 01:52:41;;;;;;;0.40;0.40;;;6.50;99.90;;;;;;5072322;28;20457;-68
2021/12/18 01:55:30;;;;;;;0.40;0.40;;;6.40;99.90;;;;;;5072222;28;20884;-68
2021/12/18 01:58:20;;;;;;;0.40;0.40;;;6.40;99.90;;;;;;5071443;28;20838;-68
2021/12/18 02:01:07;;;;;;;0.40;0.40;;;6.40;99.90;;;;;;5071602;28;20505;-68
2021/12/18 02:03:54;;;;;;;0.90;0.90;;;6.40;99.90;;;;;;5072022;28;20419;-68
2021/12/18 02:06:41;;;;;;;0.40;0.40;;;6.30;99.90;;;;;;5071823;28;21405;-68
2021/12/18 02:09:44;;;;;;;0.40;0.40;;;6.30;99.90;;;;;;5071133;28;20439;-68
2021/12/18 02:12:40;;;;;;;0.40;0.40;;;6.30;99.90;;;;;;5071689;28;20420;-68
2021/12/18 02:21:38;;;;;;;0.40;0.40;;;6.20;99.90;;;;;;5071224;28;20433;-68
2021/12/18 02:24:26;;;;;;;2.67;2.43;;;6.10;99.90;;;;;;5061651;28;20434;-68
2021/12/18 02:27:13;;;;;;;0.40;0.40;;;6.10;99.90;;;;;;5062583;28;20428;-68
2021/12/18 02:30:03;;;;;;;0.40;0.40;;;6.10;99.90;;;;;;5051931;28;20448;-68
2021/12/18 02:32:51;;;;;;;0.40;0.40;;;6.00;99.90;;;;;;5050817;28;20420;-68
2021/12/18 02:35:45;;;;;;;0.40;0.40;;;6.00;99.90;;;;;;5051494;28;20424;-68
2021/12/18 02:38:57;;;;;;;0.40;0.40;;;6.00;99.90;;;;;;5052483;28;20467;-68
2021/12/18 02:41:46;;;;;;;0.40;0.40;;;6.00;99.90;;;;;;5050362;28;20503;-68
2021/12/18 02:44:32;;;;;;;0.40;0.40;;;6.10;99.90;;;;;;5050159;28;21009;-68
2021/12/18 02:47:19;;;;;;;0.40;0.40;;;6.10;99.90;;;;;;5050382;28;20478;-68
2021/12/18 02:50:07;;;;;;;0.40;0.40;;;6.10;99.90;;;;;;5053093;28;20467;-68
2021/12/18 02:52:54;;;;;;;0.40;0.40;;;6.20;99.90;;;;;;5057125;28;20528;-68
2021/12/18 02:55:42;;;;;;;0.40;0.40;;;6.20;99.90;;;;;;5069492;28;20427;-68
2021/12/18 02:58:29;;;;;;;0.40;0.40;;;6.20;99.90;;;;;;5052350;28;20487;-68
2021/12/18 03:01:20;;;;;;;0.40;0.40;;;6.20;99.90;;;;;;5050502;28;20431;-69
2021/12/18 03:04:15;;;;;;;0.70;0.70;;;6.30;99.90;;;;;;5050010;28;20456;-68
2021/12/18 03:07:05;;;;;;;0.60;0.60;;;6.30;99.90;;;;;;5050083;28;20448;-68
2021/12/18 03:25:16;;;;;;;0.40;0.40;;;6.20;99.90;;;;;;5051127;28;20430;-68
2021/12/18 03:28:05;;;;;;;0.40;0.40;;;6.50;99.90;;;;;;5050326;28;20558;-68
2021/12/18 03:30:52;;;;;;;0.40;0.40;;;6.40;99.90;;;;;;5049399;28;20664;-68
2021/12/18 03:33:39;;;;;;;0.40;0.40;;;6.50;99.90;;;;;;5053416;28;20836;-68
2021/12/18 03:36:26;;;;;;;0.40;0.40;;;6.50;99.90;;;;;;5058336;28;20419;-68
2021/12/18 03:39:15;;;;;;;0.80;0.80;;;6.40;99.90;;;;;;5074298;28;20466;-68
2021/12/18 03:42:04;;;;;;;0.40;0.40;;;6.40;99.90;;;;;;5074481;28;20423;-68
2021/12/18 03:44:53;;;;;;;0.40;0.40;;;6.40;99.90;;;;;;5073364;28;20510;-68
2021/12/18 03:47:40;;;;;;;0.40;0.40;;;6.40;99.90;;;;;;5074127;28;20489;-68
2021/12/18 03:50:27;;;;;;;0.40;0.40;;;6.30;99.90;;;;;;5073654;28;20992;-68
2021/12/18 03:53:14;;;;;;;0.40;0.40;;;6.30;99.90;;;;;;5074503;28;20419;-68
2021/12/18 03:56:02;;;;;;;0.40;0.40;;;6.30;99.90;;;;;;5074014;28;20425;-68
2021/12/18 03:58:49;;;;;;;2.53;1.63;;;6.30;99.90;;;;;;5073777;28;20471;-68
2021/12/18 04:01:37;;;;;;;0.40;0.40;;;6.30;99.90;;;;;;5073696;28;20435;-68
2021/12/18 04:04:24;;;;;;;0.40;0.40;;;6.30;99.90;;;;;;5073575;28;20427;-68
2021/12/18 04:07:11;;;;;;;0.40;0.40;;;6.30;99.90;;;;;;5074688;28;20442;-68
2021/12/18 04:09:58;;;;;;;0.40;0.40;;;6.30;99.90;;;;;;5082615;28;20435;-68
2021/12/18 04:12:46;;;;;;;0.57;0.57;;;6.30;99.90;;;;;;5081996;28;20825;-68
2021/12/18 04:15:33;;;;;;;0.40;0.40;;;6.30;99.90;;;;;;5085845;28;20427;-68
2021/12/18 04:18:22;;;;;;;0.40;0.40;;;6.30;99.90;;;;;;5085945;28;20517;-69
2021/12/18 04:21:09;;;;;;;0.40;0.40;;;6.20;99.90;;;;;;5081378;28;20419;-69
2021/12/18 04:23:56;;;;;;;0.40;0.40;;;6.30;99.90;;;;;;5073631;28;20951;-68
2021/12/18 04:26:43;;;;;;;0.40;0.40;;;6.40;99.90;;;;;;5073336;28;20852;-68
2021/12/18 04:29:30;;;;;;;0.40;0.40;;;6.30;99.90;;;;;;5073660;28;20455;-68
2021/12/18 04:32:17;;;;;;;2.60;2.40;;;6.30;99.90;;;;;;5073635;28;20786;-68
2021/12/18 04:35:06;;;;;;;0.40;0.40;;;6.40;99.90;;;;;;5073858;28;20427;-68
2021/12/18 04:37:53;;;;;;;0.50;0.50;;;6.40;99.90;;;;;;5056334;28;20941;-68
2021/12/18 04:40:41;;;;;;;0.40;0.40;;;6.40;99.90;;;;;;5053327;28;20549;-68
2021/12/18 04:43:28;;;;;;;0.40;0.40;;;6.40;99.90;;;;;;5052755;28;20801;-68
2021/12/18 04:46:15;;;;;;;0.40;0.40;;;6.50;99.90;;;;;;5053330;28;20432;-68
2021/12/18 04:49:02;;;;;;;5.40;1.23;;;6.40;99.90;;;;;;5053384;28;20440;-68
2021/12/18 04:51:50;;;;;;;0.40;0.40;;;6.40;99.90;;;;;;5053133;28;20809;-68
2021/12/18 04:54:37;;;;;;;2.60;1.40;;;6.30;99.90;;;;;;5052978;28;20474;-68
2021/12/18 04:57:24;;;;;;;0.40;0.40;;;6.40;99.90;;;;;;5053228;28;20473;-68
2021/12/18 05:00:14;;;;;;;0.60;0.60;;;6.30;99.90;;;;;;5104042;22;20517;-71
2021/12/18 05:03:05;;;;;;;0.40;0.40;;;6.30;99.90;;;;;;5093531;28;20422;-69
2021/12/18 05:05:52;;;;;;;0.40;0.40;;;6.30;99.90;;;;;;5093758;28;20604;-70
2021/12/18 05:08:40;;;;;;;0.50;0.50;;;6.40;99.90;;;;;;5093356;28;20422;-69
2021/12/18 05:11:27;;;;;;;1.07;1.07;;;6.30;99.90;;;;;;5093407;28;20995;-70
2021/12/18 05:14:14;;;;;;;0.40;0.40;;;6.30;99.90;;;;;;5092954;28;20418;-70
2021/12/18 05:17:01;;;;;;;0.40;0.40;;;6.40;99.90;;;;;;5093492;28;20423;-70
2021/12/18 05:19:48;;;;;;;0.50;0.50;;;6.30;99.90;;;;;;5092400;28;20481;-71
2021/12/18 05:22:35;;;;;;;0.40;0.40;;;6.40;99.90;;;;;;5092539;28;20440;-70
2021/12/18 05:25:23;;;;;;;0.40;0.40;;;6.40;99.90;;;;;;5092853;28;20426;-70
2021/12/18 05:28:10;;;;;;;0.40;0.40;;;6.50;99.90;;;;;;5092767;28;20811;-71
2021/12/18 05:30:57;;;;;;;0.50;0.50;;;6.50;99.90;;;;;;5092947;28;20426;-71
2021/12/18 05:33:45;;;;;;;1.17;1.07;;;6.40;99.90;;;;;;5093352;28;20426;-70
2021/12/18 05:36:36;;;;;;;1.50;1.20;;;6.40;99.90;;;;;;5093476;28;20888;-69
2021/12/18 05:39:25;;;;;;;0.50;0.50;;;6.40;99.90;;;;;;5093499;28;20478;-70
2021/12/18 05:42:13;;;;;;;2.20;0.87;;;6.30;99.90;;;;;;5093834;28;20496;-70
2021/12/18 05:45:00;;;;;;;1.33;0.83;;;6.30;99.90;;;;;;5093848;28;20422;-70
2021/12/18 05:47:47;;;;;;;0.40;0.40;;;6.30;99.90;;;;;;5093175;28;20450;-71
2021/12/18 05:50:34;;;;;;;0.60;0.50;;;6.30;99.90;;;;;;5093346;28;20838;-70
2021/12/18 05:53:21;;;;;;;0.50;0.50;;;6.20;99.90;;;;;;5092997;28;20419;-70
2021/12/18 05:56:08;;;;;;;0.40;0.40;;;6.20;99.90;;;;;;5094339;28;20437;-70
2021/12/18 05:58:58;;;;;;;0.60;0.60;;;6.20;99.90;;;;;;5092586;28;20527;-70
2021/12/18 06:01:45;;;;;;;0.40;0.40;;;6.20;99.90;;;;;;5093072;28;20429;-69
2021/12/18 06:04:32;;;;;;;0.40;0.40;;;6.20;99.90;;;;;;5092509;28;20431;-70
2021/12/18 06:07:29;;;;;;;0.40;0.40;;;6.20;99.90;;;;;;5092546;28;20440;-70
2021/12/18 06:10:16;;;;;;;0.70;0.70;;;6.20;99.90;;;;;;5092789;28;20434;-70
2021/12/18 06:13:04;;;;;;;0.60;0.60;;;6.30;99.90;;;;;;5093372;28;20934;-70
2021/12/18 06:15:52;;;;;;;0.40;0.40;;;6.20;99.90;;;;;;5093218;28;20423;-70
2021/12/18 06:18:44;;;;;;;0.40;0.40;;;6.20;99.90;;;;;;5092465;28;20418;-70
2021/12/18 06:21:30;;;;;;;0.40;0.40;;;6.30;99.90;;;;;;5092542;28;20553;-69
2021/12/18 06:24:17;;;;;;;0.50;0.50;;;6.20;99.90;;;;;;5092675;28;20961;-70
2021/12/18 06:27:04;;;;;;;0.50;0.50;;;6.20;99.90;;;;;;5092092;28;20418;-72
2021/12/18 06:29:51;;;;;;;0.40;0.40;;;6.20;99.90;;;;;;5091711;28;20445;-69
2021/12/18 06:32:40;;;;;;;0.50;0.50;;;6.20;99.90;;;;;;5091640;28;20432;-69
2021/12/18 06:35:27;;;;;;;0.97;0.97;;;6.20;99.90;;;;;;5091941;28;20425;-70
2021/12/18 06:38:14;;;;;;;0.40;0.40;;;6.20;99.90;;;;;;5071946;28;20458;-71
2021/12/18 06:41:01;;;;;;;0.50;0.50;;;6.20;99.90;;;;;;5071527;28;20458;-70
2021/12/18 06:43:48;;;;;;;0.40;0.40;;;6.20;99.90;;;;;;5071748;28;20925;-70
2021/12/18 06:46:34;;;;;;;0.40;0.40;;;6.30;99.90;;;;;;5071462;28;20455;-69
2021/12/18 06:49:23;;;;;;;0.77;0.60;;;6.30;99.90;;;;;;5070472;28;20431;-69
2021/12/18 06:52:10;;;;;;;1.93;1.47;;;6.30;99.90;;;;;;5083750;28;20423;-70
2021/12/18 06:54:57;;;;;;;0.97;0.60;;;6.20;99.90;;;;;;5085272;28;20453;-70
2021/12/18 06:57:44;;;;;;;0.50;0.50;;;6.30;99.90;;;;;;5086052;28;20532;-69
2021/12/18 07:00:31;;;;;;;0.40;0.40;;;6.20;99.90;;;;;;5084725;28;20505;-70
2021/12/18 07:03:18;;;;;;;0.50;0.50;;;6.10;99.90;;;;;;5083157;28;20477;-70
2021/12/18 07:06:06;;;;;;;0.40;0.40;;;6.10;99.90;;;;;;5083461;28;20459;-69
2021/12/18 07:08:53;;;;;;;0.50;0.50;;;6.10;99.90;;;;;;5087312;28;20466;-70
2021/12/18 07:11:39;;;;;;;0.40;0.40;;;6.10;99.90;;;;;;5086747;28;20415;-69
2021/12/18 07:14:27;;;;;;;0.80;0.80;;;6.10;99.90;;;;;;5087108;28;20426;-69
2021/12/18 07:17:14;;;;;;;1.33;0.50;;;6.20;99.90;;;;;;5079261;28;20434;-70
2021/12/18 07:20:01;;;;;;;0.40;0.40;;;6.20;99.90;;;;;;5077149;28;20477;-70
2021/12/18 07:22:49;;;;;;;0.40;0.40;;;6.20;99.90;;;;;;5075725;28;20430;-72
2021/12/18 07:25:36;;;;;;;0.40;0.40;;;6.20;99.90;;;;;;5074734;28;20838;-69
2021/12/18 07:28:23;;;;;;;0.67;0.67;;;6.20;99.90;;;;;;5074869;28;20423;-69
2021/12/18 07:31:10;;;;;;;2.93;1.37;;;6.10;99.90;;;;;;5075725;28;20411;-69
2021/12/18 07:33:57;;;;;;;0.40;0.40;;;6.10;99.90;;;;;;5080009;28;20423;-70
2021/12/18 07:36:44;;;;;;;0.40;0.40;;;6.10;99.90;;;;;;5091154;28;20495;-69
2021/12/18 07:39:33;;;;;;;1.10;1.10;;;6.10;99.90;;;;;;5104276;28;20461;-70
2021/12/18 07:42:20;;;;;;;0.83;0.83;;;6.10;99.90;;;;;;5103134;28;20422;-70
2021/12/18 07:45:08;;;;;;;0.87;0.67;;;6.10;99.90;;;;;;5104333;28;20425;-72
2021/12/18 07:47:55;;;;;;;0.40;0.40;;;6.10;99.90;;;;;;5103777;28;20422;-71
2021/12/18 07:50:42;;;;;;;1.43;1.23;;;6.10;99.90;;;;;;5104535;28;20969;-70
2021/12/18 07:53:29;;;;;;;0.40;0.40;;;6.10;99.90;;;;;;5107539;28;20422;-70
2021/12/18 07:56:19;;;;;;;1.57;1.47;;;6.10;99.90;;;;;;5106509;28;20434;-70
2021/12/18 07:59:05;;;;;;;2.27;1.20;;;6.10;99.90;;;;;;5109316;28;20485;-71
2021/12/18 08:01:52;;;;;;;1.10;0.70;;;6.00;99.90;;;;;;5110117;28;20422;-72
2021/12/18 08:04:39;;;;;;;0.50;0.50;;;6.00;99.90;;;;;;5109253;28;21015;-70
2021/12/18 08:07:26;;;;;;;0.40;0.40;;;5.90;99.90;;;;;;5109693;28;20418;-72
2021/12/18 08:10:14;;;;;;;0.40;0.40;;;5.90;99.90;;;;;;5109917;28;20472;-70
2021/12/18 08:13:02;;;;;;;0.40;0.40;;;5.90;99.90;;;;;;5108684;28;20418;-69
2021/12/18 08:15:49;;;;;;;0.40;0.40;;;5.90;99.90;;;;;;5107184;28;20427;-70
2021/12/18 08:18:36;;;;;;;1.13;0.70;;;5.90;99.90;;;;;;5108725;28;20419;-74
2021/12/18 08:21:23;;;;;;;0.70;0.70;;;6.00;99.90;;;;;;5112401;28;20449;-70
2021/12/18 08:24:10;;;;;;;0.43;0.43;;;5.90;99.90;;;;;;5109495;28;20841;-71
2021/12/18 08:26:57;;;;;;;1.07;0.97;;;5.90;99.90;;;;;;5096828;28;20450;-71
2021/12/18 08:29:45;;;;;;;0.90;0.90;;;5.90;99.90;;;;;;5094242;28;20438;-70
2021/12/18 08:32:32;;;;;;;0.40;0.40;;;6.00;99.90;;;;;;5094536;28;20779;-69
2021/12/18 08:35:20;;;;;;;0.40;0.40;;;5.90;99.90;;;;;;5094376;28;20433;-70
2021/12/18 08:38:07;;;;;;;0.40;0.40;;;6.00;99.90;;;;;;5075303;28;20427;-73
2021/12/18 08:40:54;;;;;;;0.40;0.40;;;5.90;99.90;;;;;;5073619;28;20454;-69
2021/12/18 08:43:41;;;;;;;0.40;0.40;;;5.90;99.90;;;;;;5073745;28;20427;-69
2021/12/18 08:46:29;;;;;;;0.40;0.40;;;6.10;99.90;;;;;;5074013;28;20430;-69
2021/12/18 08:49:16;;;;;;;0.50;0.50;;;6.20;99.90;;;;;;5073164;28;20447;-70
2021/12/18 08:52:04;;;;;;;0.40;0.40;;;6.30;99.90;;;;;;5073338;28;20427;-70
2021/12/18 08:54:51;;;;;;;0.40;0.40;;;6.20;99.90;;;;;;5083064;28;20423;-69
2021/12/18 08:57:38;;;;;;;0.90;0.90;;;6.20;99.90;;;;;;5073599;28;20415;-69
2021/12/18 09:00:26;;;;;;;0.60;0.60;;;6.30;99.90;;;;;;5072821;28;20482;-69
2021/12/18 09:03:14;;;;;;;0.50;0.50;;;6.30;99.90;;;;;;5072698;28;20438;-70
2021/12/18 09:06:02;;;;;;;1.93;1.00;;;6.30;99.90;;;;;;5073123;28;20428;-70
2021/12/18 09:08:49;;;;;;;0.50;0.50;;;6.50;99.90;;;;;;5073002;28;20444;-69
2021/12/18 09:11:36;;;;;;;1.90;1.07;;;6.50;99.90;;;;;;5072854;28;20415;-69
2021/12/18 09:14:24;;;;;;;0.40;0.40;;;6.50;99.90;;;;;;5072267;28;20962;-70
2021/12/18 09:17:11;;;;;;;0.40;0.40;;;6.50;99.90;;;;;;5071734;28;20423;-70
2021/12/18 09:19:59;;;;;;;0.40;0.40;;;6.60;99.90;;;;;;5072066;28;20474;-70
2021/12/18 09:22:46;;;;;;;0.40;0.40;;;6.60;99.90;;;;;;5072551;28;20423;-71
2021/12/18 09:25:33;;;;;;;0.50;0.50;;;6.50;99.90;;;;;;5071990;28;20446;-70
2021/12/18 09:28:20;;;;;;;0.50;0.50;;;6.50;99.90;;;;;;5071935;28;20427;-69
2021/12/18 09:31:07;;;;;;;0.50;0.50;;;6.40;99.90;;;;;;5071061;28;20799;-70
2021/12/18 09:33:54;;;;;;;15.87;1.70;;;6.50;99.90;;;;;;5072463;28;20970;-69
2021/12/18 09:36:42;;;;;;;0.60;0.60;;;6.50;99.90;;;;;;5079362;28;20422;-71
2021/12/18 09:39:29;;;;;;;2.20;1.10;;;6.60;99.90;;;;;;5092500;28;20446;-70
2021/12/18 09:42:16;;;;;;;0.40;0.40;;;6.50;99.90;;;;;;5092663;28;20418;-70
2021/12/18 09:45:05;;;;;;;3.47;2.00;;;6.40;99.90;;;;;;5092588;28;20495;-70
2021/12/18 09:47:52;;;;;;;0.40;0.40;;;6.50;99.90;;;;;;5093079;28;20414;-70
2021/12/18 09:50:42;;;;;;;1.07;1.00;;;6.60;99.90;;;;;;5091715;28;20499;-71
2021/12/18 09:53:30;;;;;;;0.73;0.73;;;6.60;99.90;;;;;;5092623;28;20521;-69
2021/12/18 09:56:17;;;;;;;0.40;0.40;;;6.50;99.90;;;;;;5092604;28;20494;-70
2021/12/18 09:59:04;;;;;;;0.70;0.70;;;6.50;99.90;;;;;;5092285;28;20454;-70
2021/12/18 10:01:51;;;;;;;0.83;0.63;;;6.60;99.90;;;;;;5092462;28;20469;-69
2021/12/18 10:04:39;;;;;;;0.40;0.40;;;6.50;99.90;;;;;;5092498;28;20454;-70
2021/12/18 10:07:28;;;;;;;1.37;1.27;;;6.50;99.90;;;;;;5091967;28;20426;-70
2021/12/18 10:10:16;;;;;;;1.10;1.10;;;6.50;99.90;;;;;;5091818;28;20852;-70
2021/12/18 10:13:05;;;;;;;1.43;1.33;;;6.50;99.90;;;;;;5092252;28;20426;-70
2021/12/18 10:16:09;;;;;;;2.50;1.37;;;6.50;99.90;;;;;;5092395;28;20418;-71
2021/12/18 10:18:57;;;;;;;0.40;0.40;;;6.60;99.90;;;;;;5092260;28;20438;-71
2021/12/18 10:21:55;;;;;;;2.33;0.93;;;6.50;99.90;;;;;;5092211;28;20495;-72
2021/12/18 10:24:44;;;;;;;0.40;0.40;;;6.50;99.90;;;;;;5092041;28;20418;-70
2021/12/18 10:27:32;;;;;;;4.23;1.23;;;6.60;99.90;;;;;;5091812;28;20950;-70
2021/12/18 10:30:21;;;;;;;0.40;0.40;;;6.60;99.90;;;;;;5091249;28;20449;-70
2021/12/18 10:33:10;;;;;;;1.70;1.00;;;6.50;99.90;;;;;;5092104;28;20426;-70
2021/12/18 10:35:58;;;;;;;1.53;1.37;;;6.60;99.90;;;;;;5090521;28;20425;-71
2021/12/18 10:38:48;;;;;;;0.50;0.50;;;6.50;99.90;;;;;;5071030;28;20470;-71
2021/12/18 10:41:36;;;;;;;0.60;0.60;;;6.60;99.90;;;;;;5073489;28;20473;-69
2021/12/18 10:44:24;;;;;;;0.40;0.40;;;6.60;99.90;;;;;;5076412;28;20431;-70
2021/12/18 10:47:12;;;;;;;1.47;0.60;;;6.60;99.90;;;;;;5075692;28;20427;-69
2021/12/18 10:49:58;;;;;;;0.50;0.50;;;6.60;99.90;;;;;;5076146;28;20965;-70
2021/12/18 10:52:46;;;;;;;0.40;0.40;;;6.60;99.90;;;;;;5075971;28;20423;-70
2021/12/18 10:55:37;;;;;;;0.40;0.40;;;6.60;99.90;;;;;;5076350;28;20828;-70
2021/12/18 10:58:27;;;;;;;0.80;0.50;;;6.70;99.90;;;;;;5076840;28;20468;-71
2021/12/18 11:01:16;;;;;;;0.50;0.50;;;6.60;99.90;;;;;;5076331;28;20458;-70
2021/12/18 11:04:04;;;;;;;1.13;0.80;;;6.80;99.90;;;;;;5076512;28;20438;-71
2021/12/18 11:06:51;;;;;;;0.40;0.40;;;6.80;99.90;;;;;;5075707;28;20430;-70
2021/12/18 11:09:45;;;;;;;0.60;0.60;;;6.80;99.90;;;;;;5075989;28;20946;-71
2021/12/18 11:15:37;;;;;;;0.60;0.60;;;7.00;99.90;;;;;;5075911;28;20945;-70
2021/12/18 11:18:25;;;;;;;0.43;0.43;;;6.80;99.90;;;;;;5074760;28;20423;-69
2021/12/18 11:21:13;;;;;;;1.00;0.77;;;6.80;99.90;;;;;;5075499;28;20458;-71
2021/12/18 11:24:04;;;;;;;0.80;0.80;;;6.80;99.90;;;;;;5076053;28;20888;-71
2021/12/18 11:26:57;;;;;;;0.50;0.50;;;6.80;99.90;;;;;;5083708;28;20800;-70
2021/12/18 11:29:51;;;;;;;0.40;0.40;;;6.90;99.90;;;;;;5074791;28;20444;-70
2021/12/18 11:32:40;;;;;;;0.40;0.40;;;6.90;99.90;;;;;;5076180;28;20427;-70
2021/12/18 11:35:28;;;;;;;0.40;0.40;;;7.00;99.90;;;;;;5075726;28;20430;-70
2021/12/18 11:38:16;;;;;;;0.40;0.40;;;7.00;99.90;;;;;;5074662;28;20414;-69
2021/12/18 11:41:04;;;;;;;0.40;0.40;;;7.00;99.90;;;;;;5074027;28;21260;-70
2021/12/18 11:43:51;;;;;;;0.40;0.40;;;7.10;99.90;;;;;;5074195;28;20844;-71
2021/12/18 11:46:39;;;;;;;0.40;0.40;;;7.10;99.90;;;;;;5075037;28;20419;-71
2021/12/18 11:49:43;;;;;;;0.40;0.40;;;7.10;99.90;;;;;;5073520;28;20447;-69
2021/12/18 11:52:55;;;;;;;0.93;0.73;;;7.20;99.90;;;;;;5073999;28;20415;-70
2021/12/18 11:55:57;;;;;;;0.40;0.40;;;7.10;99.90;;;;;;5074002;28;20427;-70
2021/12/18 11:58:46;;;;;;;0.60;0.60;;;7.30;99.90;;;;;;5073290;28;20470;-71
2021/12/18 12:01:44;;;;;;;0.40;0.40;;;7.30;99.90;;;;;;5073595;28;20544;-70
2021/12/18 12:04:57;;;;;;;0.50;0.50;;;7.30;99.90;;;;;;5073676;28;20477;-70
2021/12/18 12:07:46;;;;;;;0.60;0.50;;;7.30;99.90;;;;;;5073533;28;20992;-71
2021/12/18 12:10:47;;;;;;;0.40;0.40;;;7.30;99.90;;;;;;5073918;28;20446;-69
2021/12/18 12:13:58;;;;;;;0.50;0.50;;;7.40;99.90;;;;;;5072787;28;20508;-70
2021/12/18 12:17:03;;;;;;;0.40;0.40;;;7.40;99.90;;;;;;5073864;28;20426;-70
2021/12/18 12:19:56;;;;;;;0.50;0.50;;;7.30;99.90;;;;;;5073596;28;20817;-71
2021/12/18 12:22:53;;;;;;;0.40;0.40;;;7.30;99.90;;;;;;5072503;28;20975;-70
2021/12/18 12:25:43;;;;;;;0.57;0.57;;;7.40;99.90;;;;;;5073447;28;20415;-70
2021/12/18 12:28:30;;;;;;;0.70;0.70;;;7.40;99.90;;;;;;5073094;28;20959;-73
2021/12/18 12:31:18;;;;;;;0.40;0.40;;;7.50;99.90;;;;;;5073154;28;20423;-71
2021/12/18 12:34:30;;;;;;;0.40;0.40;;;7.40;99.90;;;;;;5073937;28;20415;-71
2021/12/18 12:37:34;;;;;;;0.40;0.40;;;7.40;99.90;;;;;;5072393;28;20424;-71
2021/12/18 12:40:34;;;;;;;0.40;0.40;;;7.40;99.90;;;;;;5073342;28;20522;-71
2021/12/18 12:43:25;;;;;;;0.70;0.60;;;7.30;99.90;;;;;;5072448;28;20493;-70
2021/12/18 12:46:17;;;;;;;0.40;0.40;;;7.30;99.90;;;;;;5072842;28;20498;-70
2021/12/18 12:49:07;;;;;;;0.40;0.40;;;7.30;99.90;;;;;;5071490;28;20439;-70
2021/12/18 12:52:09;;;;;;;0.50;0.50;;;7.30;99.90;;;;;;5072293;28;20419;-70
2021/12/18 12:55:03;;;;;;;0.40;0.40;;;7.30;99.90;;;;;;5071701;28;20525;-70
2021/12/18 12:57:55;;;;;;;0.40;0.40;;;7.40;99.90;;;;;;5072237;28;20960;-69
2021/12/18 13:00:45;;;;;;;0.40;0.40;;;7.30;99.90;;;;;;5071338;28;20451;-70
2021/12/18 13:03:35;;;;;;;0.50;0.50;;;7.30;99.90;;;;;;5071440;28;20438;-70
2021/12/18 13:06:24;;;;;;;0.60;0.60;;;7.30;99.90;;;;;;5071849;28;20419;-72
2021/12/18 13:09:11;;;;;;;0.40;0.40;;;7.30;99.90;;;;;;5071226;28;20442;-71
2021/12/18 13:12:02;;;;;;;0.40;0.40;;;7.30;99.90;;;;;;5071740;28;20411;-71
2021/12/18 13:14:52;;;;;;;0.40;0.40;;;7.30;99.90;;;;;;5071307;28;20791;-70
2021/12/18 13:17:39;;;;;;;0.40;0.40;;;7.30;99.90;;;;;;5071616;28;20800;-70
2021/12/18 13:20:26;;;;;;;0.40;0.40;;;7.50;99.90;;;;;;5071274;28;20435;-71
2021/12/18 13:23:17;;;;;;;0.40;0.40;;;7.50;99.90;;;;;;5073115;28;20463;-70
2021/12/18 13:26:06;;;;;;;0.60;0.60;;;7.30;99.90;;;;;;5071694;28;20426;-71
2021/12/18 13:28:56;;;;;;;0.50;0.50;;;7.30;99.90;;;;;;5071604;28;20466;-72
2021/12/18 13:31:49;;;;;;;0.50;0.50;;;7.30;99.90;;;;;;5071898;28;20490;-70
2021/12/18 13:34:37;;;;;;;0.60;0.60;;;7.30;99.90;;;;;;5072270;28;20427;-70
2021/12/18 13:37:24;;;;;;;0.60;0.60;;;7.20;99.90;;;;;;5085290;28;20957;-70
2021/12/18 13:40:15;;;;;;;0.40;0.40;;;7.20;99.90;;;;;;5093415;28;20500;-71
2021/12/18 13:43:07;;;;;;;0.40;0.40;;;7.20;99.90;;;;;;5093675;28;20465;-71
2021/12/18 13:45:56;;;;;;;1.80;0.90;;;7.20;99.90;;;;;;5093170;28;20941;-72
2021/12/18 13:48:48;;;;;;;0.60;0.60;;;7.20;99.90;;;;;;5093565;28;20874;-70
2021/12/18 13:51:35;;;;;;;0.47;0.47;;;7.20;99.90;;;;;;5093060;28;20800;-71
2021/12/18 13:54:22;;;;;;;0.40;0.40;;;7.20;99.90;;;;;;5093359;28;20429;-72
2021/12/18 13:57:09;;;;;;;0.50;0.50;;;7.20;99.90;;;;;;5098634;28;20942;-72
2021/12/18 13:59:57;;;;;;;0.47;0.47;;;7.20;99.90;;;;;;5092993;28;20460;-72
2021/12/18 14:02:46;;;;;;;0.40;0.40;;;7.10;99.90;;;;;;5093511;28;20470;-72
2021/12/18 14:05:34;;;;;;;0.83;0.70;;;7.10;99.90;;;;;;5093400;28;20454;-70
2021/12/18 14:08:22;;;;;;;0.80;0.80;;;7.20;99.90;;;;;;5093617;28;20986;-70
2021/12/18 14:11:12;;;;;;;2.50;1.27;;;7.20;99.90;;;;;;5093574;28;20423;-70
2021/12/18 14:14:02;;;;;;;1.57;0.80;;;7.20;99.90;;;;;;5096448;28;20422;-71
2021/12/18 14:16:51;;;;;;;0.80;0.80;;;7.30;99.90;;;;;;5098649;28;20813;-70
2021/12/18 14:19:42;;;;;;;1.87;0.67;;;7.30;99.90;;;;;;5100344;28;20439;-70
2021/12/18 14:22:31;;;;;;;0.87;0.87;;;7.30;99.90;;;;;;5099855;28;20469;-71
2021/12/18 14:25:19;;;;;;;0.40;0.40;;;7.30;99.90;;;;;;5101408;28;20429;-71
2021/12/18 14:28:06;;;;;;;0.97;0.97;;;7.40;99.90;;;;;;5101746;28;20418;-72
2021/12/18 14:30:53;;;;;;;0.70;0.70;;;7.20;99.90;;;;;;5102679;28;20472;-71
2021/12/18 14:33:52;;;;;;;0.50;0.50;;;7.20;99.90;;;;;;5101919;28;20414;-71
2021/12/18 14:37:02;;;;;;;0.40;0.40;;;7.20;99.90;;;;;;5092910;28;20428;-71
2021/12/18 14:39:53;;;;;;;0.40;0.40;;;7.30;99.90;;;;;;5074814;28;20839;-72
2021/12/18 14:42:47;;;;;;;0.70;0.70;;;7.30;99.90;;;;;;5073917;28;20987;-71
2021/12/18 14:45:36;;;;;;;1.20;1.10;;;7.30;99.90;;;;;;5071571;28;20442;-72
2021/12/18 14:48:29;;;;;;;1.20;1.10;;;7.20;99.90;;;;;;5070776;28;20419;-71
2021/12/18 14:51:25;;;;;;;0.40;0.40;;;7.20;99.90;;;;;;5072057;28;20427;-72
2021/12/18 14:54:12;;;;;;;1.63;1.50;;;7.10;99.90;;;;;;5072288;28;20506;-71
2021/12/18 14:57:16;;;;;;;1.17;1.17;;;7.10;99.90;;;;;;5072563;28;20430;-71
2021/12/18 15:00:15;;;;;;;0.77;0.77;;;7.10;99.90;;;;;;5072065;28;20465;-70
2021/12/18 15:03:16;;;;;;;0.50;0.50;;;7.00;99.90;;;;;;5071549;28;20466;-72
2021/12/18 15:06:09;;;;;;;1.37;0.70;;;7.00;99.90;;;;;;5071150;28;20424;-71
2021/12/18 15:08:59;;;;;;;2.10;1.87;;;7.00;99.90;;;;;;5071734;28;20439;-72
2021/12/18 15:11:48;;;;;;;0.40;0.40;;;7.00;99.90;;;;;;5072575;28;20422;-71
2021/12/18 15:14:38;;;;;;;0.70;0.60;;;7.00;99.90;;;;;;5071772;28;20430;-72
2021/12/18 15:17:25;;;;;;;0.60;0.60;;;7.00;99.90;;;;;;5071084;28;20419;-71
2021/12/18 15:20:12;;;;;;;1.77;0.50;;;7.00;99.90;;;;;;5071683;28;20512;-71
2021/12/18 15:22:58;;;;;;;0.40;0.40;;;7.00;99.90;;;;;;5071576;28;21124;-71
2021/12/18 15:25:45;;;;;;;0.67;0.57;;;7.10;99.90;;;;;;5071133;28;20429;-71